Time;durP1;ratioP1;P1;durP2;ratioP2;P2;SDS_P1;SDS_P2;PMS_P1;PMS_P2;Temp;Humidity;BMP_temperature;BMP_pressure;BME280_temperature;BME280_humidity;BME280_pressure;Samples;Min_cycle;Max_cycle;Signal;HPM_P1;HPM_P2
2022/05/30 00:00:56;;;;;;;1.98;0.73;;;6.00;99.90;;;;;;5075784;28;20052;-72
2022/05/30 00:03:22;;;;;;;1.40;0.70;;;6.10;99.90;;;;;;5076347;28;20086;-72
2022/05/30 00:05:50;;;;;;;1.55;0.80;;;6.20;99.90;;;;;;5075605;28;20036;-72
2022/05/30 00:08:18;;;;;;;2.20;1.00;;;6.20;99.90;;;;;;5074302;28;20020;-72
2022/05/30 00:10:44;;;;;;;4.10;1.08;;;6.20;99.90;;;;;;5074288;28;20016;-72
2022/05/30 00:13:11;;;;;;;1.60;0.98;;;6.20;99.90;;;;;;5074624;28;20024;-72
2022/05/30 00:15:37;;;;;;;1.25;0.73;;;6.20;99.90;;;;;;5075835;28;20052;-72
2022/05/30 00:18:03;;;;;;;1.73;0.75;;;6.20;99.90;;;;;;5074208;28;20055;-72
2022/05/30 00:20:29;;;;;;;1.60;0.85;;;6.30;99.90;;;;;;5075376;28;20417;-72
2022/05/30 00:22:55;;;;;;;1.52;0.90;;;6.30;99.90;;;;;;5075695;28;20028;-72
2022/05/30 00:25:21;;;;;;;2.60;1.10;;;6.30;99.90;;;;;;5075268;28;20158;-72
2022/05/30 00:27:47;;;;;;;1.85;1.10;;;6.30;99.90;;;;;;5074051;28;20029;-72
2022/05/30 00:30:14;;;;;;;3.00;1.10;;;6.30;99.90;;;;;;5074640;28;20013;-72
2022/05/30 00:32:40;;;;;;;4.25;1.00;;;6.40;99.90;;;;;;5075493;28;20085;-71
2022/05/30 00:35:07;;;;;;;3.42;1.17;;;6.30;99.90;;;;;;5075193;28;20028;-72
2022/05/30 00:37:33;;;;;;;1.65;0.90;;;6.40;99.90;;;;;;5075150;28;20031;-72
2022/05/30 00:39:58;;;;;;;1.80;1.10;;;6.30;99.90;;;;;;5075261;28;20384;-72
2022/05/30 00:42:26;;;;;;;3.03;1.38;;;6.30;99.90;;;;;;5075053;28;20021;-72
2022/05/30 00:44:53;;;;;;;3.38;1.50;;;6.40;99.90;;;;;;5074914;28;20426;-72
2022/05/30 00:47:21;;;;;;;4.45;1.70;;;6.40;99.90;;;;;;5075041;28;20024;-72
2022/05/30 00:49:48;;;;;;;2.55;1.33;;;6.40;99.90;;;;;;5074808;28;20036;-72
2022/05/30 00:52:25;;;;;;;1.83;0.93;;;6.40;99.90;;;;;;5074798;28;20069;-72
2022/05/30 00:55:12;;;;;;;2.17;1.05;;;6.40;99.90;;;;;;5075334;28;20031;-72
2022/05/30 00:57:39;;;;;;;1.52;0.90;;;6.40;99.90;;;;;;5075005;28;20028;-72
2022/05/30 01:00:08;;;;;;;2.30;0.95;;;6.40;99.90;;;;;;5074837;28;20020;-72
2022/05/30 01:02:36;;;;;;;2.97;1.20;;;6.40;99.90;;;;;;5073330;28;20035;-72
2022/05/30 01:07:48;;;;;;;2.25;1.10;;;6.30;99.90;;;;;;5074840;28;20674;-72
2022/05/30 01:10:18;;;;;;;2.40;1.10;;;6.30;99.90;;;;;;5074670;28;20392;-72
2022/05/30 01:12:52;;;;;;;3.10;1.23;;;6.30;99.90;;;;;;5073444;28;20017;-72
2022/05/30 01:15:21;;;;;;;2.97;1.15;;;6.30;99.90;;;;;;5074302;28;20464;-72
2022/05/30 01:18:01;;;;;;;2.13;1.38;;;6.30;99.90;;;;;;5074301;28;20036;-72
2022/05/30 01:20:48;;;;;;;2.45;1.30;;;6.30;99.90;;;;;;5072877;28;20029;-72
2022/05/30 01:23:49;;;;;;;1.98;1.10;;;6.30;99.90;;;;;;5074193;28;20112;-72
2022/05/30 01:26:30;;;;;;;1.55;1.10;;;6.30;99.90;;;;;;5052340;28;20436;-72
2022/05/30 01:29:04;;;;;;;2.83;1.60;;;6.30;99.90;;;;;;5072061;28;20123;-72
2022/05/30 01:31:31;;;;;;;4.70;2.03;;;6.30;99.90;;;;;;5073699;28;20024;-72
2022/05/30 01:33:56;;;;;;;3.60;1.88;;;6.20;99.90;;;;;;5073625;28;20032;-72
2022/05/30 01:36:25;;;;;;;3.78;1.90;;;6.20;99.90;;;;;;5073574;28;20023;-72
2022/05/30 01:38:51;;;;;;;2.72;1.80;;;6.20;99.90;;;;;;5073495;28;20021;-73
2022/05/30 01:41:16;;;;;;;3.10;1.95;;;6.20;99.90;;;;;;5073331;28;20107;-72
2022/05/30 01:43:42;;;;;;;3.58;1.90;;;6.30;99.90;;;;;;5072673;28;20107;-72
2022/05/30 01:46:11;;;;;;;2.97;1.90;;;6.30;99.90;;;;;;5073722;28;20468;-72
2022/05/30 01:48:37;;;;;;;4.05;1.92;;;6.30;99.90;;;;;;5073675;28;20031;-71
2022/05/30 01:51:03;;;;;;;3.72;2.20;;;6.30;99.90;;;;;;5072610;28;20021;-72
2022/05/30 01:53:29;;;;;;;3.47;1.58;;;6.30;99.90;;;;;;5074217;28;20016;-72
2022/05/30 01:55:55;;;;;;;3.10;1.42;;;6.30;99.90;;;;;;5073615;28;20024;-71
2022/05/30 01:58:21;;;;;;;3.38;1.70;;;6.30;99.90;;;;;;5072341;28;20027;-72
2022/05/30 02:00:48;;;;;;;7.15;1.90;;;6.30;99.90;;;;;;5073483;28;20439;-72
2022/05/30 02:03:14;;;;;;;3.13;1.60;;;6.30;99.90;;;;;;5073840;28;20526;-72
2022/05/30 02:05:40;;;;;;;3.65;1.75;;;6.30;99.90;;;;;;5072194;28;20032;-72
2022/05/30 02:08:07;;;;;;;3.47;1.75;;;6.30;99.90;;;;;;5073520;28;20425;-72
2022/05/30 02:10:34;;;;;;;3.25;1.60;;;6.30;99.90;;;;;;5073408;28;20361;-72
2022/05/30 02:13:00;;;;;;;2.47;1.50;;;6.30;99.90;;;;;;5073463;28;20013;-72
2022/05/30 02:15:26;;;;;;;4.25;1.83;;;6.30;99.90;;;;;;5073465;28;20082;-72
2022/05/30 02:17:52;;;;;;;3.42;1.60;;;6.30;99.90;;;;;;5073389;28;20052;-72
2022/05/30 02:20:18;;;;;;;3.65;1.50;;;6.30;99.90;;;;;;5073543;28;20055;-72
2022/05/30 02:22:44;;;;;;;4.13;1.88;;;6.30;99.90;;;;;;5073432;28;20069;-72
2022/05/30 02:25:12;;;;;;;2.88;1.50;;;6.20;99.90;;;;;;5073289;28;20145;-72
2022/05/30 02:27:38;;;;;;;3.05;1.90;;;6.20;99.90;;;;;;5073592;28;20108;-72
2022/05/30 02:30:05;;;;;;;2.70;1.80;;;6.20;99.90;;;;;;5073239;28;20056;-72
2022/05/30 02:32:31;;;;;;;2.92;1.48;;;6.20;99.90;;;;;;5073573;28;20028;-72
2022/05/30 02:37:40;;;;;;;3.75;1.50;;;6.20;99.90;;;;;;5073542;28;20050;-72
2022/05/30 02:40:07;;;;;;;3.50;1.13;;;6.20;99.90;;;;;;5071956;28;20104;-72
2022/05/30 02:42:32;;;;;;;3.75;1.13;;;6.10;99.90;;;;;;5073722;28;20024;-72
2022/05/30 02:44:59;;;;;;;2.70;1.50;;;6.10;99.90;;;;;;5073102;28;20047;-71
2022/05/30 02:47:24;;;;;;;2.38;1.20;;;6.10;99.90;;;;;;5073046;28;20468;-72
2022/05/30 02:49:50;;;;;;;2.50;1.20;;;6.00;99.90;;;;;;5073688;28;20035;-72
2022/05/30 02:52:16;;;;;;;3.42;1.40;;;5.80;99.90;;;;;;5073412;28;20044;-72
2022/05/30 02:54:41;;;;;;;2.13;1.10;;;5.80;99.90;;;;;;5076525;28;20470;-72
2022/05/30 02:57:08;;;;;;;4.07;1.40;;;5.70;99.90;;;;;;5077165;28;20393;-72
2022/05/30 02:59:34;;;;;;;2.42;1.13;;;5.70;99.90;;;;;;5076925;28;20036;-72
2022/05/30 03:01:59;;;;;;;3.20;1.63;;;5.70;99.90;;;;;;5076881;28;20082;-72
2022/05/30 03:04:25;;;;;;;2.25;1.48;;;5.70;99.90;;;;;;5076791;28;20443;-72
2022/05/30 03:06:51;;;;;;;5.40;2.17;;;5.70;99.90;;;;;;5076811;28;20023;-72
2022/05/30 03:09:18;;;;;;;3.22;1.58;;;5.70;99.90;;;;;;5076663;28;20082;-73
2022/05/30 03:11:44;;;;;;;2.72;1.50;;;5.70;99.90;;;;;;5076753;28;20488;-72
2022/05/30 03:14:10;;;;;;;2.83;1.35;;;5.70;99.90;;;;;;5075352;28;20024;-72
2022/05/30 03:16:36;;;;;;;3.72;1.30;;;5.70;99.90;;;;;;5076962;28;20079;-73
2022/05/30 03:19:01;;;;;;;2.97;1.38;;;5.60;99.90;;;;;;5076845;28;20025;-72
2022/05/30 03:21:27;;;;;;;2.72;1.40;;;5.70;99.90;;;;;;5076467;28;20032;-72
2022/05/30 03:23:53;;;;;;;2.13;1.30;;;5.70;99.90;;;;;;5077274;28;20040;-72
2022/05/30 03:26:19;;;;;;;3.22;1.80;;;5.80;99.90;;;;;;5076698;28;20066;-71
2022/05/30 03:28:45;;;;;;;2.83;1.73;;;5.80;99.90;;;;;;5076666;28;20486;-72
2022/05/30 03:31:10;;;;;;;3.17;1.38;;;5.90;99.90;;;;;;5075003;28;20024;-72
2022/05/30 03:33:38;;;;;;;2.53;1.58;;;5.90;99.90;;;;;;5076865;28;20102;-72
2022/05/30 03:36:10;;;;;;;3.38;1.65;;;5.90;99.90;;;;;;5075019;28;20024;-72
2022/05/30 03:38:36;;;;;;;3.72;1.23;;;5.90;99.90;;;;;;5076555;28;20025;-72
2022/05/30 03:41:02;;;;;;;2.75;1.60;;;5.90;99.90;;;;;;5076101;28;20111;-71
2022/05/30 03:43:27;;;;;;;2.47;1.35;;;5.80;99.90;;;;;;5076085;28;20111;-71
2022/05/30 03:45:53;;;;;;;2.40;1.50;;;5.80;99.90;;;;;;5075947;28;20101;-71
2022/05/30 03:48:21;;;;;;;3.08;1.25;;;5.80;99.90;;;;;;5075774;28;20126;-72
2022/05/30 03:50:48;;;;;;;6.25;1.40;;;5.80;99.90;;;;;;5064099;28;20469;-70
2022/05/30 03:53:14;;;;;;;2.63;1.33;;;5.90;99.90;;;;;;5066779;28;20025;-71
2022/05/30 03:55:42;;;;;;;2.28;1.10;;;5.90;99.90;;;;;;5075306;28;20081;-71
2022/05/30 03:58:09;;;;;;;3.20;1.27;;;5.90;99.90;;;;;;5069501;28;20532;-71
2022/05/30 04:00:37;;;;;;;1.90;1.08;;;5.90;99.90;;;;;;5075189;28;20032;-72
2022/05/30 04:03:03;;;;;;;2.65;1.33;;;6.00;99.90;;;;;;5064389;28;20025;-72
2022/05/30 04:05:29;;;;;;;2.35;1.00;;;6.00;99.90;;;;;;5071509;28;20064;-71
2022/05/30 04:07:55;;;;;;;5.70;1.30;;;6.00;99.90;;;;;;5075194;28;20024;-72
2022/05/30 04:10:21;;;;;;;3.03;1.25;;;6.00;99.90;;;;;;5071740;28;20071;-71
2022/05/30 04:12:47;;;;;;;6.97;3.58;;;6.00;99.90;;;;;;5064824;28;20141;-71
2022/05/30 04:15:22;;;;;;;4.05;3.00;;;6.00;99.90;;;;;;5074999;28;20028;-72
2022/05/30 04:17:48;;;;;;;5.40;3.17;;;6.00;99.90;;;;;;5074897;28;20104;-72
2022/05/30 04:20:14;;;;;;;4.80;2.97;;;6.00;99.90;;;;;;5064794;28;20428;-72
2022/05/30 04:22:40;;;;;;;4.93;3.00;;;6.00;99.90;;;;;;5059489;28;20033;-72
2022/05/30 04:25:07;;;;;;;3.58;2.30;;;6.10;99.90;;;;;;5082856;22;20048;-83
2022/05/30 04:27:33;;;;;;;3.00;1.80;;;6.00;99.90;;;;;;5057667;28;20027;-83
2022/05/30 04:29:58;;;;;;;4.43;1.98;;;5.90;99.90;;;;;;5057234;28;20119;-83
2022/05/30 04:32:26;;;;;;;3.13;2.03;;;5.90;99.90;;;;;;5055729;28;20032;-84
2022/05/30 04:34:52;;;;;;;4.35;2.50;;;5.80;99.90;;;;;;5073197;28;20601;-83
2022/05/30 04:37:18;;;;;;;5.28;3.42;;;5.80;99.90;;;;;;5073092;28;20035;-83
2022/05/30 04:39:43;;;;;;;13.80;5.60;;;5.70;99.90;;;;;;5075597;28;20078;-82
2022/05/30 04:42:09;;;;;;;11.85;4.47;;;5.70;99.90;;;;;;5074200;28;20028;-82
2022/05/30 04:44:35;;;;;;;14.23;5.90;;;5.80;99.90;;;;;;5075705;28;20040;-82
2022/05/30 04:47:01;;;;;;;9.52;5.13;;;5.90;99.90;;;;;;5075511;28;20091;-82
2022/05/30 04:49:27;;;;;;;10.10;5.57;;;5.90;99.90;;;;;;5075345;28;20070;-81
2022/05/30 04:51:53;;;;;;;7.55;4.72;;;6.00;99.90;;;;;;5075152;28;20084;-81
2022/05/30 04:54:20;;;;;;;7.45;4.47;;;6.00;99.90;;;;;;5073638;28;20053;-81
2022/05/30 04:56:46;;;;;;;6.57;4.32;;;6.00;99.90;;;;;;5074905;28;20048;-81
2022/05/30 04:59:11;;;;;;;7.45;4.32;;;6.10;99.90;;;;;;5075048;28;20440;-81
2022/05/30 05:01:38;;;;;;;6.72;4.10;;;6.10;99.90;;;;;;5074797;28;20016;-82
2022/05/30 05:04:05;;;;;;;6.55;4.22;;;6.10;99.90;;;;;;5074677;28;20031;-81
2022/05/30 05:06:32;;;;;;;6.50;4.40;;;6.20;99.90;;;;;;5075042;28;20404;-81
2022/05/30 05:09:18;;;;;;;6.53;3.83;;;6.20;99.90;;;;;;5074879;28;20027;-81
2022/05/30 05:11:46;;;;;;;6.82;4.35;;;6.20;99.90;;;;;;5073701;28;20089;-81
2022/05/30 05:14:13;;;;;;;5.82;3.70;;;6.30;99.90;;;;;;5074678;28;20016;-81
2022/05/30 05:16:38;;;;;;;8.27;5.40;;;6.30;99.90;;;;;;5074820;28;20037;-81
2022/05/30 05:19:05;;;;;;;6.68;4.32;;;6.40;99.90;;;;;;5073393;28;20031;-82
2022/05/30 05:21:35;;;;;;;6.80;4.55;;;6.40;99.90;;;;;;5074621;28;20028;-81
2022/05/30 05:24:04;;;;;;;9.45;6.13;;;6.30;99.90;;;;;;5074378;28;20496;-82
2022/05/30 05:26:30;;;;;;;9.07;5.53;;;6.40;99.90;;;;;;5089892;28;20036;-81
2022/05/30 05:28:56;;;;;;;7.90;5.32;;;6.40;99.90;;;;;;5074219;28;20024;-81
2022/05/30 05:31:25;;;;;;;8.02;5.05;;;6.50;99.90;;;;;;5072896;28;20024;-81
2022/05/30 05:33:52;;;;;;;10.05;6.13;;;6.40;99.90;;;;;;5072726;28;20116;-81
2022/05/30 05:36:27;;;;;;;10.88;6.13;;;6.40;99.90;;;;;;5074638;28;20376;-81
2022/05/30 05:38:53;;;;;;;11.40;6.57;;;6.40;99.90;;;;;;5074273;28;20025;-82
2022/05/30 05:41:21;;;;;;;9.95;6.18;;;6.40;99.90;;;;;;5074589;28;20116;-82
2022/05/30 05:43:47;;;;;;;9.73;6.53;;;6.40;99.90;;;;;;5072469;28;20024;-81
2022/05/30 05:46:18;;;;;;;11.32;7.15;;;6.40;99.90;;;;;;5073976;28;20020;-81
2022/05/30 05:48:44;;;;;;;;;;;6.40;99.90;;;;;;5074597;28;20020;-81
2022/05/30 05:51:10;;;;;;;6.63;4.40;;;6.50;99.90;;;;;;5072728;28;19904;-81
2022/05/30 05:53:36;;;;;;;6.10;4.32;;;6.60;99.90;;;;;;5074204;28;20035;-81
2022/05/30 05:56:17;;;;;;;6.90;5.05;;;6.60;99.90;;;;;;5073977;28;20435;-81
2022/05/30 05:58:43;;;;;;;7.22;4.40;;;6.70;99.90;;;;;;5072651;28;20510;-82
2022/05/30 06:01:15;;;;;;;8.07;4.93;;;6.70;99.90;;;;;;5072657;28;20033;-82
2022/05/30 06:03:41;;;;;;;8.73;4.72;;;6.70;99.90;;;;;;5074711;28;20016;-82
2022/05/30 06:06:07;;;;;;;11.55;4.85;;;6.70;99.90;;;;;;5072514;28;20127;-81
2022/05/30 06:08:34;;;;;;;6.53;4.22;;;6.70;99.90;;;;;;5072520;28;20020;-81
2022/05/30 06:11:06;;;;;;;6.80;4.50;;;6.70;99.90;;;;;;5074667;28;20119;-81
2022/05/30 06:13:37;;;;;;;6.38;4.43;;;6.80;99.90;;;;;;5072223;28;20111;-82
2022/05/30 06:16:17;;;;;;;6.90;4.50;;;6.90;99.90;;;;;;5073811;28;20381;-82
2022/05/30 06:18:43;;;;;;;6.82;4.07;;;7.10;99.90;;;;;;5073780;28;20484;-81
2022/05/30 06:21:09;;;;;;;6.07;4.05;;;7.30;99.90;;;;;;5073415;28;20038;-81
2022/05/30 06:23:35;;;;;;;6.97;4.80;;;7.40;99.90;;;;;;5073155;28;20051;-82
2022/05/30 06:26:09;;;;;;;6.32;4.32;;;7.60;99.90;;;;;;5073651;28;20048;-82
2022/05/30 06:28:36;;;;;;;7.35;4.20;;;7.70;99.90;;;;;;5072970;28;20500;-82
2022/05/30 06:31:10;;;;;;;8.07;4.13;;;7.70;99.90;;;;;;5073299;28;20029;-82
2022/05/30 06:33:36;;;;;;;7.70;3.95;;;7.80;99.90;;;;;;5073533;28;20017;-82
2022/05/30 06:36:07;;;;;;;5.78;3.60;;;7.80;99.90;;;;;;5073615;28;20042;-82
2022/05/30 06:38:34;;;;;;;4.38;3.13;;;7.90;99.90;;;;;;5072002;28;20032;-82
2022/05/30 06:41:19;;;;;;;5.47;3.50;;;8.00;99.90;;;;;;5073888;28;20043;-82
2022/05/30 06:43:45;;;;;;;5.60;3.35;;;8.10;99.90;;;;;;5073565;28;20028;-82
2022/05/30 06:46:12;;;;;;;5.88;3.20;;;8.20;99.90;;;;;;5073719;28;20017;-81
2022/05/30 06:48:38;;;;;;;6.60;4.00;;;8.40;99.90;;;;;;5073809;28;20055;-82
2022/05/30 06:51:07;;;;;;;5.68;3.60;;;8.60;99.90;;;;;;5071880;28;20016;-81
2022/05/30 06:53:33;;;;;;;4.60;3.05;;;8.70;99.90;;;;;;5073284;28;20361;-81
2022/05/30 06:55:59;;;;;;;5.88;3.35;;;8.80;99.90;;;;;;5071923;28;20058;-82
2022/05/30 06:58:25;;;;;;;4.95;3.28;;;9.00;99.90;;;;;;5072058;28;20484;-82
2022/05/30 07:00:51;;;;;;;9.45;3.63;;;9.10;99.90;;;;;;5073437;28;20040;-81
2022/05/30 07:03:17;;;;;;;4.68;3.22;;;9.30;99.90;;;;;;5071734;28;20021;-81
2022/05/30 07:05:45;;;;;;;5.07;3.40;;;9.40;99.90;;;;;;5072965;28;20370;-82
2022/05/30 07:08:12;;;;;;;6.88;3.92;;;9.60;99.90;;;;;;5071685;28;20017;-81
2022/05/30 07:10:39;;;;;;;6.72;3.63;;;9.70;99.90;;;;;;5073074;28;20025;-82
2022/05/30 07:13:06;;;;;;;3.90;2.85;;;9.70;99.90;;;;;;5088468;28;20029;-82
2022/05/30 07:15:34;;;;;;;5.13;3.00;;;9.80;99.90;;;;;;5073331;28;20481;-82
2022/05/30 07:18:13;;;;;;;4.60;3.13;;;10.00;99.90;;;;;;5073209;28;20021;-82
2022/05/30 07:20:40;;;;;;;4.28;3.00;;;10.10;99.90;;;;;;5071854;28;20028;-82
2022/05/30 07:23:06;;;;;;;4.20;2.78;;;10.20;99.90;;;;;;5071813;28;20090;-82
2022/05/30 07:25:36;;;;;;;4.47;2.53;;;10.30;99.90;;;;;;5072818;28;20111;-82
2022/05/30 07:28:03;;;;;;;4.93;3.10;;;10.40;99.90;;;;;;5072858;28;20021;-82
2022/05/30 07:30:29;;;;;;;4.78;3.08;;;10.50;99.90;;;;;;5071627;28;20044;-82
2022/05/30 07:32:56;;;;;;;4.60;2.17;;;10.70;99.90;;;;;;5071593;28;20477;-82
2022/05/30 07:35:22;;;;;;;3.92;1.90;;;10.90;99.90;;;;;;5072905;28;20047;-82
2022/05/30 07:37:49;;;;;;;3.22;1.67;;;11.00;99.90;;;;;;5071646;28;20024;-82
2022/05/30 07:40:15;;;;;;;3.38;1.05;;;11.20;99.90;;;;;;5073617;28;20029;-82
2022/05/30 07:42:41;;;;;;;4.57;2.03;;;11.30;99.90;;;;;;5075059;28;20028;-82
2022/05/30 07:45:09;;;;;;;4.88;1.80;;;11.50;99.90;;;;;;5076257;28;20029;-82
2022/05/30 07:47:35;;;;;;;3.45;1.88;;;11.60;99.90;;;;;;5075037;28;20063;-82
2022/05/30 07:50:02;;;;;;;2.40;1.40;;;11.70;99.90;;;;;;5076299;28;20557;-82
2022/05/30 07:52:32;;;;;;;2.22;1.40;;;11.90;99.90;;;;;;5074893;28;20028;-82
2022/05/30 07:54:58;;;;;;;4.45;1.63;;;11.90;99.90;;;;;;5074910;28;20056;-81
2022/05/30 08:00:11;;;;;;;3.15;1.70;;;12.00;99.90;;;;;;5076791;28;20053;-82
2022/05/30 08:02:38;;;;;;;2.42;1.60;;;12.10;99.90;;;;;;5075968;28;20025;-82
2022/05/30 08:05:06;;;;;;;5.00;1.95;;;12.20;99.90;;;;;;5076032;28;20556;-82
2022/05/30 08:07:31;;;;;;;4.57;1.50;;;12.40;99.90;;;;;;5074736;28;20032;-81
2022/05/30 08:09:57;;;;;;;2.65;1.17;;;12.60;99.90;;;;;;5075082;28;20024;-81
2022/05/30 08:12:23;;;;;;;1.92;0.90;;;12.80;99.90;;;;;;5075833;28;20048;-82
2022/05/30 08:14:48;;;;;;;2.78;1.05;;;12.90;99.10;;;;;;5075962;28;20549;-81
2022/05/30 08:17:14;;;;;;;3.70;1.00;;;13.10;97.60;;;;;;5076072;28;20040;-81
2022/05/30 08:19:40;;;;;;;2.85;1.25;;;13.10;95.40;;;;;;5075753;28;20387;-81
2022/05/30 08:22:08;;;;;;;2.28;0.73;;;13.20;95.70;;;;;;5075640;28;20029;-81
2022/05/30 08:24:39;;;;;;;3.40;0.90;;;13.30;94.30;;;;;;5074017;28;20476;-81
2022/05/30 08:27:05;;;;;;;;;;;13.40;96.30;;;;;;5075810;28;20021;-81
2022/05/30 08:29:31;;;;;;;2.63;1.08;;;13.50;96.40;;;;;;5076071;28;20344;-81
2022/05/30 08:31:57;;;;;;;1.88;0.80;;;13.60;95.00;;;;;;5075128;28;20029;-81
2022/05/30 08:34:22;;;;;;;1.88;0.80;;;13.70;92.60;;;;;;5075318;28;20035;-81
2022/05/30 08:36:48;;;;;;;3.22;0.60;;;13.90;91.90;;;;;;5075485;28;20024;-82
2022/05/30 08:42:00;;;;;;;20.27;1.40;;;14.10;91.20;;;;;;5075603;28;20391;-82
2022/05/30 08:44:30;;;;;;;1.63;0.60;;;14.20;90.60;;;;;;5075303;28;20092;-82
2022/05/30 08:47:06;;;;;;;23.67;2.22;;;14.20;86.30;;;;;;5075200;28;20020;-81
2022/05/30 08:49:46;;;;;;;1.00;0.50;;;14.30;89.30;;;;;;5090874;28;20112;-82
2022/05/30 08:52:18;;;;;;;1.58;0.80;;;14.40;87.40;;;;;;5075403;28;20165;-81
2022/05/30 08:55:19;;;;;;;2.55;1.02;;;14.50;86.90;;;;;;5075037;28;20052;-81
2022/05/30 08:57:59;;;;;;;3.00;0.70;;;14.60;86.00;;;;;;5073962;28;20024;-81
2022/05/30 09:00:30;;;;;;;31.95;2.80;;;14.80;87.40;;;;;;5075410;28;20023;-81
2022/05/30 09:03:00;;;;;;;;;;;15.00;88.40;;;;;;5075277;28;20032;-81
2022/05/30 09:05:56;;;;;;;1.55;0.70;;;15.20;87.20;;;;;;5075327;28;19912;-82
2022/05/30 09:08:43;;;;;;;1.85;0.60;;;15.40;88.70;;;;;;5073372;28;20056;-81
2022/05/30 09:11:33;;;;;;;1.90;0.90;;;15.50;89.10;;;;;;5073889;28;20035;-81
2022/05/30 09:14:17;;;;;;;2.23;0.87;;;15.50;87.00;;;;;;5074196;28;20028;-81
2022/05/30 09:17:02;;;;;;;1.45;0.80;;;15.50;89.80;;;;;;5075327;28;20021;-81
2022/05/30 09:19:57;;;;;;;1.45;0.60;;;15.50;90.20;;;;;;5072895;28;20032;-81
2022/05/30 09:22:27;;;;;;;2.58;0.65;;;15.40;88.50;;;;;;5074894;28;20078;-81
2022/05/30 09:27:54;;;;;;;2.10;0.90;;;15.20;84.20;;;;;;5014422;28;20045;-81
2022/05/30 09:30:25;;;;;;;1.60;0.75;;;15.10;85.60;;;;;;5061860;28;20067;-81
2022/05/30 09:33:06;;;;;;;1.58;0.73;;;15.10;86.80;;;;;;5075218;28;20017;-81
2022/05/30 09:35:33;;;;;;;3.17;0.80;;;15.20;83.90;;;;;;5075525;28;20036;-81
2022/05/30 09:38:07;;;;;;;3.78;1.02;;;15.10;87.60;;;;;;5073428;28;20033;-81
2022/05/30 09:40:48;;;;;;;0.85;0.50;;;15.20;86.40;;;;;;5074637;28;20477;-81
2022/05/30 09:43:25;;;;;;;1.35;0.80;;;15.40;84.40;;;;;;5073891;28;20032;-81
2022/05/30 09:45:51;;;;;;;1.00;0.60;;;15.60;82.90;;;;;;5075044;28;20051;-81
2022/05/30 09:48:19;;;;;;;2.17;0.80;;;15.90;83.90;;;;;;5073570;28;20051;-81
2022/05/30 09:50:53;;;;;;;2.25;0.60;;;16.00;78.40;;;;;;5074420;28;20021;-81
2022/05/30 09:53:37;;;;;;;1.15;0.60;;;16.00;77.80;;;;;;5072769;28;20564;-81
2022/05/30 09:56:03;;;;;;;2.60;0.95;;;16.00;79.40;;;;;;5072922;28;20024;-81
2022/05/30 09:58:59;;;;;;;2.40;0.60;;;15.90;82.20;;;;;;5072973;28;20115;-81
2022/05/30 10:01:27;;;;;;;1.08;0.55;;;15.70;81.30;;;;;;5073964;28;20059;-81
2022/05/30 10:03:59;;;;;;;2.58;0.68;;;15.70;79.80;;;;;;5073266;28;20480;-81
2022/05/30 10:06:27;;;;;;;2.15;0.68;;;15.70;80.30;;;;;;5072660;28;20028;-81
2022/05/30 10:09:21;;;;;;;1.13;0.68;;;15.70;77.60;;;;;;5090927;28;20066;-81
2022/05/30 10:11:55;;;;;;;0.93;0.50;;;15.70;76.10;;;;;;5075543;28;20473;-81
2022/05/30 10:14:29;;;;;;;1.25;0.50;;;15.80;79.30;;;;;;5074656;28;20017;-81
2022/05/30 10:16:58;;;;;;;1.52;0.60;;;15.90;77.10;;;;;;5072469;28;20048;-81
2022/05/30 10:19:25;;;;;;;2.25;0.50;;;15.90;77.00;;;;;;5073885;28;20107;-81
2022/05/30 10:28:56;;;;;;;1.38;0.77;;;16.10;76.30;;;;;;5054340;28;20052;-80
2022/05/30 10:31:27;;;;;;;1.42;0.60;;;16.10;77.60;;;;;;5030957;28;20054;-80
2022/05/30 10:34:11;;;;;;;;;;;16.10;77.70;;;;;;5053921;28;20021;-80
2022/05/30 10:36:55;;;;;;;1.70;0.65;;;16.10;79.70;;;;;;5053306;28;20319;-81
2022/05/30 10:39:59;;;;;;;2.00;0.75;;;16.20;82.70;;;;;;5052268;28;20021;-81
2022/05/30 10:42:44;;;;;;;1.42;0.75;;;16.30;80.10;;;;;;5041212;28;20447;-80
2022/05/30 10:45:18;;;;;;;2.42;0.80;;;16.40;77.60;;;;;;5053797;28;20492;-81
2022/05/30 10:47:48;;;;;;;1.85;0.80;;;16.40;81.40;;;;;;5053564;28;20473;-81
2022/05/30 10:50:46;;;;;;;1.38;0.60;;;16.40;83.60;;;;;;5052146;28;20021;-81
2022/05/30 10:53:40;;;;;;;1.08;0.63;;;16.50;80.10;;;;;;5053211;28;20028;-81
2022/05/30 10:56:17;;;;;;;3.53;0.65;;;16.60;79.40;;;;;;5049532;28;20051;-81
2022/05/30 10:59:03;;;;;;;1.30;0.55;;;16.60;81.00;;;;;;5051123;28;20029;-81
2022/05/30 11:01:50;;;;;;;17.55;2.10;;;16.50;79.00;;;;;;5051840;28;20021;-81
2022/05/30 11:04:36;;;;;;;2.95;1.00;;;16.60;84.20;;;;;;5053384;28;20123;-81
2022/05/30 11:07:24;;;;;;;2.60;0.70;;;16.60;83.70;;;;;;5052675;28;20119;-81
2022/05/30 11:10:05;;;;;;;2.47;0.90;;;16.70;79.90;;;;;;5053264;28;20065;-80
2022/05/30 11:12:40;;;;;;;9.75;1.30;;;16.70;82.00;;;;;;5052590;28;20089;-81
2022/05/30 11:15:22;;;;;;;1.60;0.80;;;16.80;81.30;;;;;;5057398;28;20079;-81
2022/05/30 11:18:01;;;;;;;2.05;0.80;;;17.00;83.10;;;;;;5055577;28;20397;-81
2022/05/30 11:20:44;;;;;;;3.15;0.77;;;17.00;84.80;;;;;;5055484;28;20079;-81
2022/05/30 11:23:10;;;;;;;1.45;0.80;;;17.00;83.00;;;;;;5055134;28;20025;-81
2022/05/30 11:26:26;;;;;;;1.77;0.82;;;16.90;82.40;;;;;;5055159;28;20089;-81
2022/05/30 11:29:25;;;;;;;3.63;1.17;;;16.90;83.90;;;;;;5014964;28;20022;-81
2022/05/30 11:32:02;;;;;;;5.45;1.33;;;16.80;85.40;;;;;;5051819;28;20022;-81
2022/05/30 11:34:37;;;;;;;2.80;1.10;;;16.80;84.80;;;;;;5035169;28;20112;-81
2022/05/30 11:37:06;;;;;;;4.07;1.25;;;16.80;84.60;;;;;;5037360;28;20017;-81
2022/05/30 11:39:57;;;;;;;9.07;2.55;;;16.70;81.00;;;;;;5036639;28;20056;-81
2022/05/30 11:42:41;;;;;;;22.70;4.85;;;16.50;80.70;;;;;;5028915;28;20108;-81
2022/05/30 11:45:23;;;;;;;8.70;2.25;;;16.30;82.80;;;;;;5054048;28;20110;-81
2022/05/30 11:48:00;;;;;;;3.65;1.30;;;16.10;84.30;;;;;;5056863;28;20108;-81
2022/05/30 11:50:29;;;;;;;3.70;0.77;;;16.00;86.20;;;;;;5056228;28;20017;-81
2022/05/30 11:52:58;;;;;;;1.67;1.00;;;15.90;88.70;;;;;;5056361;28;20032;-81
2022/05/30 11:55:25;;;;;;;51.78;5.18;;;15.80;88.50;;;;;;5056323;28;20021;-80
2022/05/30 11:58:07;;;;;;;2.92;1.13;;;15.80;88.20;;;;;;5056918;28;20025;-80
2022/05/30 12:00:37;;;;;;;3.95;1.00;;;15.70;88.30;;;;;;5055897;28;20033;-81
2022/05/30 12:03:15;;;;;;;2.88;1.13;;;15.60;89.40;;;;;;5055166;28;20025;-80
2022/05/30 12:05:52;;;;;;;2.78;1.08;;;15.50;88.70;;;;;;5054328;28;20017;-81
2022/05/30 12:08:42;;;;;;;2.13;1.00;;;15.40;90.40;;;;;;5056011;28;20029;-80
2022/05/30 12:11:37;;;;;;;3.75;1.05;;;15.30;91.30;;;;;;5043667;28;20025;-80
2022/05/30 12:14:28;;;;;;;3.42;1.00;;;15.20;91.10;;;;;;5053377;28;20499;-80
2022/05/30 12:17:10;;;;;;;2.13;1.13;;;15.10;91.80;;;;;;5055742;28;20040;-80
2022/05/30 12:25:36;;;;;;;2.70;1.50;;;14.70;92.70;;;;;;5054881;28;20453;-80
2022/05/30 12:28:27;;;;;;;2.45;1.13;;;14.60;93.30;;;;;;5054021;28;20021;-81
2022/05/30 12:31:08;;;;;;;2.85;1.20;;;14.50;93.60;;;;;;5055041;28;20027;-80
2022/05/30 12:33:34;;;;;;;2.28;1.17;;;14.40;93.70;;;;;;5054024;28;20025;-80
2022/05/30 12:36:09;;;;;;;2.80;1.25;;;14.20;93.90;;;;;;5055343;28;20104;-81
2022/05/30 12:38:57;;;;;;;2.95;1.00;;;14.10;94.70;;;;;;5055357;28;20053;-80
2022/05/30 12:41:30;;;;;;;1.95;1.10;;;14.00;95.60;;;;;;5054451;28;20056;-80
2022/05/30 12:43:57;;;;;;;2.40;0.90;;;13.90;96.00;;;;;;5055450;28;20116;-81
2022/05/30 12:46:25;;;;;;;1.80;0.95;;;13.80;97.60;;;;;;5055229;28;20051;-80
2022/05/30 12:48:55;;;;;;;2.65;1.20;;;13.80;97.80;;;;;;5053683;28;20539;-81
2022/05/30 12:51:37;;;;;;;2.30;1.00;;;13.70;98.90;;;;;;5054028;28;20021;-81
2022/05/30 12:54:02;;;;;;;2.47;1.08;;;13.60;99.30;;;;;;5047865;28;20060;-81
2022/05/30 12:56:38;;;;;;;2.80;1.20;;;13.40;99.90;;;;;;5057482;28;20025;-81
2022/05/30 12:59:03;;;;;;;4.60;0.98;;;13.30;99.90;;;;;;5034990;28;20513;-82
2022/05/30 13:01:44;;;;;;;4.43;1.10;;;13.30;99.90;;;;;;5032714;28;20044;-81
2022/05/30 13:04:16;;;;;;;2.53;0.90;;;13.30;99.90;;;;;;5033328;28;20083;-81
2022/05/30 13:07:04;;;;;;;2.47;1.20;;;13.40;99.90;;;;;;5042904;28;20013;-81
2022/05/30 13:09:40;;;;;;;1.52;0.90;;;13.30;99.90;;;;;;5047784;28;20532;-80
2022/05/30 13:12:15;;;;;;;1.80;0.95;;;13.30;99.90;;;;;;5055956;28;20032;-81
2022/05/30 13:14:50;;;;;;;3.13;1.00;;;13.30;99.90;;;;;;5055655;28;20063;-81
2022/05/30 13:17:18;;;;;;;3.63;1.10;;;13.40;99.90;;;;;;5054324;28;20021;-81
2022/05/30 13:19:48;;;;;;;2.58;1.20;;;13.40;99.90;;;;;;5057890;28;20082;-81
2022/05/30 13:22:33;;;;;;;2.78;1.00;;;13.40;99.90;;;;;;5059072;28;20082;-81
2022/05/30 13:24:59;;;;;;;2.90;1.35;;;13.40;99.90;;;;;;5054720;28;20040;-81
2022/05/30 13:27:29;;;;;;;3.78;1.35;;;13.40;99.90;;;;;;5055176;28;20032;-81
2022/05/30 13:29:55;;;;;;;3.55;1.20;;;13.30;99.90;;;;;;5056298;28;20067;-81
2022/05/30 13:32:23;;;;;;;2.72;1.25;;;13.30;99.90;;;;;;5054385;28;20021;-81
2022/05/30 13:34:56;;;;;;;3.25;1.42;;;13.10;99.90;;;;;;5053721;28;20086;-80
2022/05/30 13:37:24;;;;;;;4.15;1.30;;;13.10;99.90;;;;;;5053615;28;20027;-81
2022/05/30 13:39:52;;;;;;;4.20;1.50;;;12.90;99.90;;;;;;5051540;28;20044;-80